Time;durP1;ratioP1;P1;durP2;ratioP2;P2;SDS_P1;SDS_P2;PMS_P1;PMS_P2;Temp;Humidity;BMP_temperature;BMP_pressure;BME280_temperature;BME280_humidity;BME280_pressure;Samples;Min_cycle;Max_cycle;Signal;HPM_P1;HPM_P2
2022/09/23 00:09:09;;;;;;;;;;;;;;;;;;20751717;28;19925;-62
2022/09/23 00:19:11;;;;;;;;;;;;;;;;;;20751892;28;20336;-62
2022/09/23 00:29:12;;;;;;;;;;;;;;;;;;20750141;28;19925;-63
2022/09/23 00:39:14;;;;;;;;;;;;;;;;;;20750309;28;20362;-61
2022/09/23 00:49:16;;;;;;;;;;;;;;;;;;20757967;28;20305;-62
2022/09/23 00:59:18;;;;;;;;;;;;;;;;;;20768633;28;20025;-63
2022/09/23 01:09:19;;;;;;;;;;;;;;;;;;20765937;28;20008;-61
2022/09/23 01:19:22;;;;;;;;;;;;;;;;;;20764324;28;20361;-61
2022/09/23 01:29:26;;;;;;;;;;;;;;;;;;20763118;28;19929;-62
2022/09/23 01:39:27;;;;;;;;;;;;;;;;;;20744173;28;19932;-62
2022/09/23 01:49:29;;;;;;;;;;;;;;;;;;20760450;28;20309;-61
2022/09/23 01:59:34;;;;;;;;;;;;;;;;;;20759155;28;19926;-62
2022/09/23 02:09:37;;;;;;;;;;;;;;;;;;20758716;28;19929;-61
2022/09/23 02:19:40;;;;;;;;;;;;;;;;;;20758453;28;19969;-60
2022/09/23 02:29:44;;;;;;;;;;;;;;;;;;20757782;28;20011;-61
2022/09/23 02:39:46;;;;;;;;;;;;;;;;;;20756357;28;19987;-61
2022/09/23 02:49:48;;;;;;;;;;;;;;;;;;20757231;28;19926;-61
2022/09/23 02:59:50;;;;;;;;;;;;;;;;;;20755659;28;19925;-62
2022/09/23 03:09:52;;;;;;;;;;;;;;;;;;20753315;28;19930;-61
2022/09/23 03:20:03;;;;;;;;;;;;;;;;;;20753613;28;19926;-60
2022/09/23 03:30:16;;;;;;;;;;;;;;;;;;20752765;28;20020;-60
2022/09/23 03:40:19;;;;;;;;;;;;;;;;;;20751789;28;19932;-61
2022/09/23 03:50:21;;;;;;;;;;;;;;;;;;20752382;28;19925;-60
2022/09/23 04:00:24;;;;;;;;;;;;;;;;;;20752152;28;20336;-62
2022/09/23 04:10:25;;;;;;;;;;;;;;;;;;20750262;28;19925;-61
2022/09/23 04:20:29;;;;;;;;;;;;;;;;;;20749775;28;19937;-61
2022/09/23 04:30:31;;;;;;;;;;;;;;;;;;20749991;28;20361;-61
2022/09/23 04:40:33;;;;;;;;;;;;;;;;;;20750034;28;20297;-60
2022/09/23 04:50:34;;;;;;;;;;;;;;;;;;20749677;28;19926;-61
2022/09/23 05:00:37;;;;;;;;;;;;;;;;;;20749556;28;19929;-60
2022/09/23 05:10:38;;;;;;;;;;;;;;;;;;20749168;28;20024;-61
2022/09/23 05:20:43;;;;;;;;;;;;;;;;;;20730085;28;19961;-61
2022/09/23 05:30:44;;;;;;;;;;;;;;;;;;20739136;28;20012;-62
2022/09/23 05:40:46;;;;;;;;;;;;;;;;;;20760690;28;19925;-61
2022/09/23 05:50:48;;;;;;;;;;;;;;;;;;20762985;28;19930;-61
2022/09/23 06:00:50;;;;;;;;;;;;;;;;;;20760347;28;19972;-62
2022/09/23 06:10:52;;;;;;;;;;;;;;;;;;20760219;28;20370;-61
2022/09/23 06:20:53;;;;;;;;;;;;;;;;;;20758738;28;20393;-61
2022/09/23 06:30:56;;;;;;;;;;;;;;;;;;20757661;28;20012;-62
2022/09/23 06:40:58;;;;;;;;;;;;;;;;;;20756125;28;19929;-61
2022/09/23 06:51:01;;;;;;;;;;;;;;;;;;20754741;28;20020;-62
2022/09/23 07:01:03;;;;;;;;;;;;;;;;;;20756030;28;19932;-61
2022/09/23 07:11:04;;;;;;;;;;;;;;;;;;20753483;28;19925;-61
2022/09/23 07:21:06;;;;;;;;;;;;;;;;;;20752972;28;19925;-61
2022/09/23 07:31:08;;;;;;;;;;;;;;;;;;20752503;28;20004;-62
2022/09/23 07:41:10;;;;;;;;;;;;;;;;;;20753068;28;19925;-61
2022/09/23 07:51:12;;;;;;;;;;;;;;;;;;20751653;28;19925;-62
2022/09/23 08:01:14;;;;;;;;;;;;;;;;;;20750917;28;19982;-61
2022/09/23 08:11:15;;;;;;;;;;;;;;;;;;20750022;28;19932;-60
2022/09/23 08:21:18;;;;;;;;;;;;;;;;;;20749844;28;19934;-59
2022/09/23 08:31:20;;;;;;;;;;;;;;;;;;20749855;28;20456;-61
2022/09/23 08:41:22;;;;;;;;;;;;;;;;;;20747627;28;20021;-63
2022/09/23 08:51:23;;;;;;;;;;;;;;;;;;20749946;28;19951;-65
2022/09/23 09:01:25;;;;;;;;;;;;;;;;;;20748348;28;19968;-58
2022/09/23 09:11:30;;;;;;;;;;;;;;;;;;20757151;28;19971;-62
2022/09/23 09:21:36;;;;;;;;;;;;;;;;;;20763210;28;19926;-63
2022/09/23 09:31:37;;;;;;;;;;;;;;;;;;20761207;28;19936;-61
2022/09/23 09:41:40;;;;;;;;;;;;;;;;;;20761448;28;19925;-60
2022/09/23 09:51:46;;;;;;;;;;;;;;;;;;20759990;28;19925;-62
2022/09/23 10:01:49;;;;;;;;;;;;;;;;;;20759656;28;19936;-63
2022/09/23 10:11:51;;;;;;;;;;;;;;;;;;20758476;28;19969;-57
2022/09/23 10:21:55;;;;;;;;;;;;;;;;;;20757880;28;20301;-60
2022/09/23 10:31:57;;;;;;;;;;;;;;;;;;20758126;28;19976;-60
2022/09/23 10:52:18;;;;;;;;;;;;;;;;;;20754736;28;19948;-60
2022/09/23 11:02:20;;;;;;;;;;;;;;;;;;20755359;28;20348;-64
2022/09/23 11:12:22;;;;;;;;;;;;;;;;;;20754182;28;19925;-62
2022/09/23 11:22:36;;;;;;;;;;;;;;;;;;20756839;28;19986;-57
2022/09/23 11:32:39;;;;;;;;;;;;;;;;;;20752062;28;20056;-64
2022/09/23 11:42:40;;;;;;;;;;;;;;;;;;20734526;28;19933;-62
2022/09/23 11:52:42;;;;;;;;;;;;;;;;;;20750379;28;19932;-63
2022/09/23 12:02:44;;;;;;;;;;;;;;;;;;20751032;28;19926;-62
2022/09/23 12:12:49;;;;;;;;;;;;;;;;;;20751185;28;19979;-63
2022/09/23 12:22:51;;;;;;;;;;;;;;;;;;20751960;28;19925;-66
2022/09/23 12:32:53;;;;;;;;;;;;;;;;;;20731937;28;19929;-65
2022/09/23 12:42:55;;;;;;;;;;;;;;;;;;20755237;28;19929;-66
2022/09/23 12:52:57;;;;;;;;;;;;;;;;;;20764884;28;19956;-63
2022/09/23 13:13:20;;;;;;;;;;;;;;;;;;20764943;28;19926;-60
2022/09/23 13:23:22;;;;;;;;;;;;;;;;;;20762217;28;19926;-60
2022/09/23 13:33:24;;;;;;;;;;;;;;;;;;20745994;28;19929;-62
2022/09/23 13:43:26;;;;;;;;;;;;;;;;;;20761435;28;19925;-61
2022/09/23 13:53:28;;;;;;;;;;;;;;;;;;20760111;28;19929;-63
2022/09/23 14:03:30;;;;;;;;;;;;;;;;;;20759779;28;20379;-59
2022/09/23 14:13:32;;;;;;;;;;;;;;;;;;20759115;28;20273;-60
2022/09/23 14:23:34;;;;;;;;;;;;;;;;;;20740412;28;20049;-60
2022/09/23 14:33:35;;;;;;;;;;;;;;;;;;20789352;28;19925;-60
2022/09/23 14:43:39;;;;;;;;;;;;;;;;;;20837201;28;21523;-62
2022/09/23 14:53:41;;;;;;;;;;;;;;;;;;20837435;28;19925;-59
2022/09/23 15:03:43;;;;;;;;;;;;;;;;;;20835647;28;19925;-60
2022/09/23 15:13:44;;;;;;;;;;;;;;;;;;20835699;28;19944;-59
2022/09/23 15:23:46;;;;;;;;;;;;;;;;;;20834949;28;19932;-60
2022/09/23 15:33:48;;;;;;;;;;;;;;;;;;20815796;28;20404;-63
2022/09/23 15:43:50;;;;;;;;;;;;;;;;;;20833543;28;20361;-62
2022/09/23 15:53:53;;;;;;;;;;;;;;;;;;20832385;28;20384;-61
2022/09/23 16:03:55;;;;;;;;;;;;;;;;;;20833241;28;19947;-62
2022/09/23 16:13:58;;;;;;;;;;;;;;;;;;20831746;28;19932;-65
2022/09/23 16:24:00;;;;;;;;;;;;;;;;;;20831312;28;20372;-62
2022/09/23 16:34:02;;;;;;;;;;;;;;;;;;20830163;28;19978;-64
2022/09/23 16:44:05;;;;;;;;;;;;;;;;;;20829655;28;19925;-62
2022/09/23 16:54:08;;;;;;;;;;;;;;;;;;20829995;28;19933;-69
2022/09/23 17:04:10;;;;;;;;;;;;;;;;;;20831006;28;19924;-61
2022/09/23 17:14:12;;;;;;;;;;;;;;;;;;20829491;28;19940;-62
2022/09/23 17:24:14;;;;;;;;;;;;;;;;;;20830380;28;19956;-63
2022/09/23 17:34:18;;;;;;;;;;;;;;;;;;20842743;28;19937;-62
2022/09/23 17:44:19;;;;;;;;;;;;;;;;;;20843127;28;19932;-60
2022/09/23 17:54:23;;;;;;;;;;;;;;;;;;20841931;28;19929;-64
2022/09/23 18:04:25;;;;;;;;;;;;;;;;;;20778114;28;19929;-62
2022/09/23 18:14:28;;;;;;;;;;;;;;;;;;20759046;28;19980;-59
2022/09/23 18:24:36;;;;;;;;;;;;;;;;;;20759212;28;19929;-62
2022/09/23 18:34:39;;;;;;;;;;;;;;;;;;20757685;28;20017;-61
2022/09/23 18:44:41;;;;;;;;;;;;;;;;;;20757065;28;19961;-61
2022/09/23 18:54:43;;;;;;;;;;;;;;;;;;20756220;28;19932;-60
2022/09/23 19:04:44;;;;;;;;;;;;;;;;;;20755809;28;19926;-64
2022/09/23 19:14:46;;;;;;;;;;;;;;;;;;20755581;28;19975;-63
2022/09/23 19:24:49;;;;;;;;;;;;;;;;;;20735835;28;19971;-59
2022/09/23 19:34:51;;;;;;;;;;;;;;;;;;20753119;28;19932;-65
2022/09/23 19:44:53;;;;;;;;;;;;;;;;;;20735065;28;19933;-63
2022/09/23 19:54:55;;;;;;;;;;;;;;;;;;20751911;28;19932;-61
2022/09/23 20:04:57;;;;;;;;;;;;;;;;;;20753166;28;20349;-63
2022/09/23 20:14:59;;;;;;;;;;;;;;;;;;20751374;28;19926;-60
2022/09/23 20:25:01;;;;;;;;;;;;;;;;;;20749387;28;19933;-64
2022/09/23 20:35:04;;;;;;;;;;;;;;;;;;20749695;28;20000;-65
2022/09/23 20:45:06;;;;;;;;;;;;;;;;;;20732129;28;20297;-61
2022/09/23 20:55:08;;;;;;;;;;;;;;;;;;20731371;28;20417;-59
2022/09/23 21:05:09;;;;;;;;;;;;;;;;;;20754213;28;20397;-61
2022/09/23 21:15:12;;;;;;;;;;;;;;;;;;20764349;28;19953;-61
2022/09/23 21:25:14;;;;;;;;;;;;;;;;;;20762620;28;19933;-60
2022/09/23 21:35:17;;;;;;;;;;;;;;;;;;20763878;28;20385;-61
2022/09/23 21:45:19;;;;;;;;;;;;;;;;;;20743612;28;20394;-59
2022/09/23 21:55:24;;;;;;;;;;;;;;;;;;20760852;28;19929;-59
2022/09/23 22:05:26;;;;;;;;;;;;;;;;;;20761007;28;19926;-64
2022/09/23 22:15:33;;;;;;;;;;;;;;;;;;20761759;28;19981;-61
2022/09/23 22:25:34;;;;;;;;;;;;;;;;;;20762484;28;19925;-60
2022/09/23 22:35:36;;;;;;;;;;;;;;;;;;20760913;28;20019;-63
2022/09/23 22:45:38;;;;;;;;;;;;;;;;;;20757782;28;19930;-63
2022/09/23 22:55:41;;;;;;;;;;;;;;;;;;20756758;28;20456;-61
2022/09/23 23:05:44;;;;;;;;;;;;;;;;;;20755732;28;19926;-64
2022/09/23 23:15:46;;;;;;;;;;;;;;;;;;20755064;28;20437;-61
2022/09/23 23:25:47;;;;;;;;;;;;;;;;;;20752666;28;19945;-63
2022/09/23 23:35:50;;;;;;;;;;;;;;;;;;20752857;28;19933;-60
2022/09/23 23:45:52;;;;;;;;;;;;;;;;;;20753439;28;19932;-61
2022/09/23 23:55:54;;;;;;;;;;;;;;;;;;20734097;28;19926;-63
